createdAt,value
2019-06-07T00:01:36.920Z,10.44
2019-06-07T00:04:08.572Z,10.39
2019-06-07T00:06:36.252Z,10.30
2019-06-07T00:09:08.166Z,10.29
2019-06-07T00:11:34.782Z,10.26
2019-06-07T00:14:02.340Z,10.39
2019-06-07T00:16:29.827Z,10.34
2019-06-07T00:18:57.401Z,10.28
2019-06-07T00:22:12.354Z,10.19
2019-06-07T00:23:55.405Z,10.15
2019-06-07T00:26:22.695Z,10.13
2019-06-07T00:28:50.083Z,10.19
2019-06-07T00:31:22.872Z,10.15
2019-06-07T00:33:46.772Z,10.04
2019-06-07T00:36:16.238Z,9.99
2019-06-07T00:38:44.060Z,10.02
2019-06-07T00:41:12.505Z,9.96
2019-06-07T00:43:40.346Z,9.90
2019-06-07T00:46:08.797Z,9.83
2019-06-07T00:48:39.474Z,9.84
2019-06-07T00:51:07.462Z,9.82
2019-06-07T00:53:35.465Z,9.80
2019-06-07T00:56:05.444Z,9.81
2019-06-07T00:58:33.494Z,9.85
2019-06-07T01:01:00.744Z,9.80
2019-06-07T01:03:28.136Z,9.87
2019-06-07T01:05:56.844Z,9.87
2019-06-07T01:08:29.750Z,9.86
2019-06-07T01:10:55.016Z,9.89
2019-06-07T01:13:24.284Z,9.90
2019-06-07T01:15:51.354Z,9.86
2019-06-07T01:18:41.280Z,9.83
2019-06-07T01:20:50.477Z,9.82
2019-06-07T01:23:54.309Z,9.87
2019-06-07T01:25:48.130Z,9.84
2019-06-07T01:28:23.544Z,9.83
2019-06-07T01:30:48.153Z,9.84
2019-06-07T01:33:15.975Z,9.81
2019-06-07T01:35:43.162Z,9.84
2019-06-07T01:38:10.257Z,9.86
2019-06-07T01:40:38.244Z,9.84
2019-06-07T01:43:06.334Z,9.79
2019-06-07T01:45:36.078Z,9.84
2019-06-07T01:48:03.584Z,9.73
2019-06-07T01:50:39.682Z,9.77
2019-06-07T01:53:08.703Z,9.72
2019-06-07T01:55:35.974Z,9.71
2019-06-07T01:58:03.557Z,9.77
2019-06-07T02:00:32.686Z,9.70
2019-06-07T02:03:00.035Z,9.70
2019-06-07T02:05:31.035Z,9.61
2019-06-07T02:07:56.515Z,9.58
2019-06-07T02:10:26.091Z,9.62
2019-06-07T02:12:53.132Z,9.53
2019-06-07T02:15:23.276Z,9.55
2019-06-07T02:17:50.455Z,9.58
2019-06-07T02:20:18.003Z,9.57
2019-06-07T02:22:45.179Z,9.60
2019-06-07T02:25:40.620Z,9.66
2019-06-07T02:27:42.332Z,9.63
2019-06-07T02:32:41.052Z,9.78
2019-06-07T02:35:08.624Z,9.85
2019-06-07T02:37:36.824Z,9.92
2019-06-07T02:40:07.328Z,9.92
2019-06-07T02:42:41.760Z,10.00
2019-06-07T02:45:05.383Z,10.03
2019-06-07T02:47:36.104Z,10.11
2019-06-07T02:50:02.247Z,10.16
2019-06-07T02:52:34.407Z,10.15
2019-06-07T02:54:58.771Z,10.17
2019-06-07T02:57:29.302Z,10.27
2019-06-07T03:00:07.752Z,10.30
2019-06-07T03:02:26.558Z,10.33
2019-06-07T03:04:54.212Z,10.33
2019-06-07T03:07:21.878Z,10.23
2019-06-07T03:09:50.259Z,10.37
2019-06-07T03:12:21.050Z,10.42
2019-06-07T03:14:56.466Z,10.26
2019-06-07T03:17:40.213Z,10.43
2019-06-07T03:20:09.173Z,10.41
2019-06-07T03:22:41.750Z,10.43
2019-06-07T03:25:09.662Z,10.28
2019-06-07T03:27:48.253Z,10.26
2019-06-07T03:30:36.087Z,10.30
2019-06-07T03:32:45.602Z,10.45
2019-06-07T03:35:06.401Z,10.41
2019-06-07T03:37:37.617Z,10.46
2019-06-07T03:40:03.898Z,10.41
2019-06-07T03:42:31.695Z,10.39
2019-06-07T03:45:00.081Z,10.52
2019-06-07T03:47:30.567Z,10.55
2019-06-07T03:49:56.556Z,10.58
2019-06-07T03:52:23.826Z,10.55
2019-06-07T03:54:50.990Z,10.65
2019-06-07T03:57:18.274Z,10.68
2019-06-07T03:59:45.539Z,10.70
2019-06-07T04:02:12.904Z,10.61
2019-06-07T04:04:40.068Z,10.69
2019-06-07T04:07:07.319Z,10.66
2019-06-07T04:09:37.210Z,10.64
2019-06-07T04:12:04.070Z,10.62
2019-06-07T04:14:32.826Z,10.69
2019-06-07T04:17:00.159Z,10.79
2019-06-07T04:19:28.886Z,10.73
2019-06-07T04:21:56.580Z,10.81
2019-06-07T04:24:23.751Z,10.92
2019-06-07T04:26:51.001Z,10.89
2019-06-07T04:29:33.179Z,11.02
2019-06-07T04:31:47.434Z,10.99
2019-06-07T04:34:14.708Z,11.07
2019-06-07T04:36:56.254Z,11.11
2019-06-07T04:39:13.567Z,11.12
2019-06-07T04:41:43.317Z,11.04
2019-06-07T04:44:12.111Z,11.19
2019-06-07T04:46:42.651Z,11.09
2019-06-07T04:49:13.651Z,11.02
2019-06-07T04:51:45.347Z,11.15
2019-06-07T04:54:12.717Z,11.27
2019-06-07T04:56:43.720Z,11.31
2019-06-07T04:59:08.944Z,11.17
2019-06-07T05:01:37.432Z,11.14
2019-06-07T05:04:05.438Z,11.19
2019-06-07T05:06:34.922Z,11.28
2019-06-07T05:09:01.996Z,11.23
2019-06-07T05:11:31.620Z,11.27
2019-06-07T05:13:58.657Z,11.30
2019-06-07T05:16:25.921Z,11.37
2019-06-07T05:18:53.091Z,11.48
2019-06-07T05:21:20.359Z,11.59
2019-06-07T05:24:09.662Z,11.61
2019-06-07T05:26:16.736Z,11.57
2019-06-07T05:28:43.974Z,11.74
2019-06-07T05:31:11.760Z,11.65
2019-06-07T05:33:41.243Z,11.74
2019-06-07T05:36:21.159Z,11.80
2019-06-07T05:38:48.601Z,11.87
2019-06-07T05:41:15.938Z,11.74
2019-06-07T05:43:51.538Z,11.76
2019-06-07T05:46:12.371Z,11.81
2019-06-07T05:48:41.707Z,11.93
2019-06-07T05:51:09.152Z,12.06
2019-06-07T05:53:39.988Z,12.14
2019-06-07T05:56:05.749Z,12.11
2019-06-07T05:58:32.998Z,12.18
2019-06-07T06:01:40.402Z,12.33
2019-06-07T06:03:29.452Z,12.45
2019-06-07T06:05:56.736Z,12.58
2019-06-07T06:08:24.906Z,12.72
2019-06-07T06:10:52.297Z,12.83
2019-06-07T06:13:19.443Z,12.82
2019-06-07T06:16:00.358Z,12.80
2019-06-07T06:18:16.289Z,12.88
2019-06-07T06:21:06.791Z,12.93
2019-06-07T06:23:12.973Z,12.97
2019-06-07T06:25:42.726Z,13.05
2019-06-07T06:28:12.350Z,13.04
2019-06-07T06:30:41.038Z,13.17
2019-06-07T06:33:27.157Z,13.25
2019-06-07T06:35:37.624Z,13.33
2019-06-07T06:38:05.069Z,13.45
2019-06-07T06:40:32.256Z,13.64
2019-06-07T06:42:59.466Z,13.84
2019-06-07T06:45:27.057Z,13.96
2019-06-07T06:47:54.349Z,14.05
2019-06-07T06:50:21.821Z,14.15
2019-06-07T06:52:54.077Z,14.17
2019-06-07T06:55:18.773Z,14.30
2019-06-07T06:57:48.194Z,14.52
2019-06-07T07:00:16.665Z,14.67
2019-06-07T07:03:33.042Z,14.93
2019-06-07T07:05:14.702Z,15.03
2019-06-07T07:07:42.801Z,15.09
2019-06-07T07:10:11.258Z,15.09
2019-06-07T07:12:38.734Z,15.00
2019-06-07T07:15:08.379Z,15.12
2019-06-07T07:17:50.456Z,15.26
2019-06-07T07:20:06.359Z,15.26
2019-06-07T07:22:33.740Z,15.38
2019-06-07T07:25:04.373Z,15.27
2019-06-07T07:27:31.623Z,15.40
2019-06-07T07:30:34.635Z,15.58
2019-06-07T07:32:28.047Z,15.66
2019-06-07T07:35:00.273Z,15.77
2019-06-07T07:37:24.275Z,15.95
2019-06-07T07:40:00.877Z,15.98
2019-06-07T07:42:21.921Z,15.98
2019-06-07T07:44:53.307Z,16.17
2019-06-07T07:47:24.269Z,15.97
2019-06-07T07:49:53.016Z,16.27
2019-06-07T07:52:20.617Z,16.43
2019-06-07T07:54:49.319Z,16.65
2019-06-07T07:57:17.060Z,16.76
2019-06-07T08:00:04.493Z,16.86
2019-06-07T08:02:13.790Z,17.19
2019-06-07T08:05:13.510Z,17.44
2019-06-07T08:07:10.569Z,17.51
2019-06-07T08:09:40.605Z,17.48
2019-06-07T08:12:07.978Z,17.72
2019-06-07T08:14:35.247Z,17.99
2019-06-07T08:17:02.643Z,18.00
2019-06-07T08:19:30.032Z,18.15
2019-06-07T08:22:00.089Z,18.22
2019-06-07T08:24:26.556Z,18.46
2019-06-07T08:27:22.101Z,18.52
2019-06-07T08:29:44.953Z,18.55
2019-06-07T08:32:03.113Z,18.62
2019-06-07T08:34:30.410Z,18.62
2019-06-07T08:37:01.756Z,18.65
2019-06-07T08:39:26.838Z,18.81
2019-06-07T08:42:14.363Z,18.92
2019-06-07T08:44:25.587Z,18.90
2019-06-07T08:47:05.170Z,19.03
2019-06-07T08:49:21.875Z,19.08
2019-06-07T08:51:54.316Z,19.01
2019-06-07T08:54:23.026Z,19.03
2019-06-07T08:56:47.547Z,19.09
2019-06-07T08:59:14.958Z,19.01
2019-06-07T09:01:42.214Z,19.15
2019-06-07T09:04:11.237Z,19.14
2019-06-07T09:07:02.603Z,19.26
2019-06-07T09:09:08.300Z,19.31
2019-06-07T09:11:35.739Z,19.32
2019-06-07T09:14:08.768Z,19.36
2019-06-07T09:16:33.459Z,19.17
2019-06-07T09:19:06.668Z,19.16
2019-06-07T09:21:31.162Z,19.16
2019-06-07T09:24:02.523Z,19.23
2019-06-07T09:26:29.076Z,19.26
2019-06-07T09:29:05.423Z,19.25
2019-06-07T09:31:51.115Z,19.34
2019-06-07T09:34:04.700Z,19.47
2019-06-07T09:36:28.379Z,19.54
2019-06-07T09:38:58.720Z,19.64
2019-06-07T09:41:46.400Z,19.54
2019-06-07T09:44:05.497Z,19.72
2019-06-07T09:46:23.600Z,19.77
2019-06-07T09:51:20.877Z,20.16
2019-06-07T09:53:54.557Z,20.74
2019-06-07T09:56:22.083Z,21.36
2019-06-07T09:58:52.624Z,22.21
2019-06-07T10:01:18.763Z,23.42
2019-06-07T10:03:46.111Z,23.80
2019-06-07T10:06:13.925Z,24.32
2019-06-07T10:11:13.359Z,25.53
2019-06-07T10:13:40.834Z,26.50
2019-06-07T10:16:09.292Z,27.16
2019-06-07T10:18:36.615Z,27.80
2019-06-07T10:21:05.669Z,28.64
2019-06-07T10:23:33.200Z,29.21
2019-06-07T10:26:01.620Z,29.74
2019-06-07T10:28:29.106Z,30.10
2019-06-07T10:30:56.378Z,30.48
2019-06-07T10:33:23.868Z,31.27
2019-06-07T10:35:51.235Z,31.69
2019-06-07T10:38:18.559Z,31.87
2019-06-07T10:40:46.120Z,32.14
2019-06-07T10:43:14.581Z,32.31
2019-06-07T10:45:41.994Z,32.88
2019-06-07T10:48:09.971Z,33.30
2019-06-07T10:50:37.373Z,33.41
2019-06-07T10:53:04.809Z,33.62
2019-06-07T10:55:32.172Z,33.60
2019-06-07T10:57:59.427Z,34.06
2019-06-07T11:00:27.794Z,34.28
2019-06-07T11:02:55.530Z,34.37
2019-06-07T11:05:23.099Z,34.39
2019-06-07T11:07:50.722Z,34.93
2019-06-07T11:10:20.119Z,34.96
2019-06-07T11:12:47.814Z,34.92
2019-06-07T11:15:15.202Z,35.50
2019-06-07T11:17:42.810Z,35.72
2019-06-07T11:20:14.403Z,35.51
2019-06-07T11:22:41.858Z,35.81
2019-06-07T11:25:10.876Z,36.20
2019-06-07T11:27:39.032Z,35.66
2019-06-07T11:30:08.318Z,35.75
2019-06-07T11:32:35.787Z,35.51
2019-06-07T11:35:04.234Z,35.62
2019-06-07T11:37:31.394Z,35.75
2019-06-07T11:39:58.554Z,35.97
2019-06-07T11:42:33.469Z,35.62
2019-06-07T11:45:00.648Z,35.82
2019-06-07T11:47:27.923Z,35.86
2019-06-07T11:49:55.648Z,35.99
2019-06-07T11:52:23.017Z,36.37
2019-06-07T11:54:50.311Z,36.52
2019-06-07T11:57:17.560Z,36.45
2019-06-07T11:59:44.918Z,36.44
2019-06-07T12:02:13.376Z,36.38
2019-06-07T12:04:40.758Z,36.32
2019-06-07T12:07:10.873Z,36.53
2019-06-07T12:09:37.695Z,36.90
2019-06-07T12:12:05.051Z,36.20
2019-06-07T12:14:32.571Z,36.02
2019-06-07T12:16:59.818Z,36.28
2019-06-07T12:19:27.202Z,36.26
2019-06-07T12:21:54.574Z,36.24
2019-06-07T12:24:22.198Z,36.03
2019-06-07T12:26:49.377Z,36.03
2019-06-07T12:29:17.201Z,36.19
2019-06-07T12:31:44.997Z,35.17
2019-06-07T12:34:13.267Z,35.64
2019-06-07T12:36:40.625Z,36.05
2019-06-07T12:39:08.191Z,35.88
2019-06-07T12:41:35.604Z,35.60
2019-06-07T12:44:04.177Z,35.72
2019-06-07T12:46:31.568Z,35.95
2019-06-07T12:48:59.042Z,35.93
2019-06-07T12:51:26.418Z,35.77
2019-06-07T12:53:53.783Z,35.44
2019-06-07T12:56:21.956Z,35.48
2019-06-07T12:58:49.644Z,35.39
2019-06-07T13:01:18.227Z,35.50
2019-06-07T13:03:45.497Z,35.16
2019-06-07T13:06:21.594Z,35.23
2019-06-07T13:08:49.474Z,35.01
2019-06-07T13:11:23.619Z,35.28
2019-06-07T13:13:46.105Z,35.05
2019-06-07T13:16:13.580Z,34.79
2019-06-07T13:18:40.996Z,34.59
2019-06-07T13:21:08.394Z,34.09
2019-06-07T13:23:35.772Z,33.93
2019-06-07T13:26:03.240Z,33.57
2019-06-07T13:28:30.642Z,33.52
2019-06-07T13:30:57.884Z,33.44
2019-06-07T13:33:25.831Z,33.35
2019-06-07T13:35:54.399Z,33.17
2019-06-07T13:38:25.250Z,32.69
2019-06-07T13:40:54.240Z,32.76
2019-06-07T13:43:21.864Z,32.80
2019-06-07T13:45:49.320Z,32.67
2019-06-07T13:48:17.124Z,32.39
2019-06-07T13:50:44.697Z,32.25
2019-06-07T13:53:12.020Z,32.06
2019-06-07T13:55:39.315Z,32.13
2019-06-07T13:58:06.979Z,31.76
2019-06-07T14:00:34.847Z,31.93
2019-06-07T14:03:05.675Z,32.02
2019-06-07T14:05:35.422Z,31.82
2019-06-07T14:08:02.878Z,31.51
2019-06-07T14:10:30.385Z,31.44
2019-06-07T14:12:58.131Z,31.35
2019-06-07T14:15:26.463Z,31.38
2019-06-07T14:17:54.034Z,31.18
2019-06-07T14:20:26.672Z,31.32
2019-06-07T14:22:54.300Z,31.06
2019-06-07T14:25:23.061Z,30.88
2019-06-07T14:27:50.447Z,30.79
2019-06-07T14:30:18.259Z,30.71
2019-06-07T14:32:45.643Z,30.42
2019-06-07T14:35:14.806Z,30.26
2019-06-07T14:37:42.101Z,30.21
2019-06-07T14:40:11.169Z,30.03
2019-06-07T14:42:38.360Z,29.91
2019-06-07T14:45:06.902Z,29.97
2019-06-07T14:47:37.013Z,29.83
2019-06-07T14:50:05.368Z,29.72
2019-06-07T14:52:33.458Z,29.50
2019-06-07T14:55:02.135Z,29.51
2019-06-07T14:57:29.463Z,29.42
2019-06-07T14:59:56.623Z,29.45
2019-06-07T15:02:26.337Z,29.48
2019-06-07T15:04:54.577Z,29.50
2019-06-07T15:07:21.902Z,29.42
2019-06-07T15:09:49.492Z,29.37
2019-06-07T15:12:25.140Z,29.20
2019-06-07T15:14:45.848Z,29.26
2019-06-07T15:17:13.377Z,29.29
2019-06-07T15:19:40.543Z,29.30
2019-06-07T15:22:08.103Z,29.34
2019-06-07T15:24:38.590Z,29.18
2019-06-07T15:27:04.690Z,28.95
2019-06-07T15:29:31.981Z,28.90
2019-06-07T15:31:59.350Z,28.84
2019-06-07T15:34:28.863Z,28.77
2019-06-07T15:36:55.989Z,28.92
2019-06-07T15:39:23.261Z,28.84
2019-06-07T15:41:53.027Z,28.81
2019-06-07T15:44:20.238Z,28.71
2019-06-07T15:46:47.361Z,28.67
2019-06-07T15:49:14.736Z,28.68
2019-06-07T15:51:44.383Z,28.65
2019-06-07T15:54:11.759Z,28.62
2019-06-07T15:56:39.143Z,28.63
2019-06-07T15:59:06.592Z,28.68
2019-06-07T16:01:33.754Z,28.67
2019-06-07T16:04:01.278Z,28.66
2019-06-07T16:06:28.729Z,28.58
2019-06-07T16:08:55.969Z,28.75
2019-06-07T16:11:23.287Z,28.81
2019-06-07T16:13:50.657Z,28.84
2019-06-07T16:16:18.082Z,28.84
2019-06-07T16:18:45.477Z,28.78
2019-06-07T16:21:12.844Z,28.74
2019-06-07T16:23:40.019Z,28.74
2019-06-07T16:26:11.916Z,28.79
2019-06-07T16:28:40.462Z,28.88
2019-06-07T16:31:10.485Z,28.97
2019-06-07T16:33:38.872Z,28.99
2019-06-07T16:36:06.316Z,29.08
2019-06-07T16:38:33.495Z,29.19
2019-06-07T16:41:00.764Z,29.24
2019-06-07T16:43:28.045Z,29.18
2019-06-07T16:45:55.343Z,29.25
2019-06-07T16:48:22.611Z,29.24
2019-06-07T16:50:49.974Z,29.05
2019-06-07T16:53:17.132Z,28.53
2019-06-07T16:55:44.848Z,28.16
2019-06-07T16:58:12.206Z,27.74
2019-06-07T17:00:40.527Z,27.33
2019-06-07T17:03:08.288Z,26.99
2019-06-07T17:05:35.824Z,26.58
2019-06-07T17:08:03.591Z,26.03
2019-06-07T17:10:30.968Z,25.18
2019-06-07T17:12:58.344Z,24.48
2019-06-07T17:15:25.872Z,23.38
2019-06-07T17:17:53.405Z,23.09
2019-06-07T17:20:20.875Z,22.75
2019-06-07T17:22:49.614Z,22.34
2019-06-07T17:25:17.902Z,22.19
2019-06-07T17:27:46.345Z,22.08
2019-06-07T17:30:15.436Z,21.80
2019-06-07T17:32:50.507Z,21.66
2019-06-07T17:35:12.887Z,21.69
2019-06-07T17:37:41.772Z,21.45
2019-06-07T17:40:10.648Z,21.47
2019-06-07T17:42:38.107Z,21.19
2019-06-07T17:45:06.898Z,20.97
2019-06-07T17:47:34.226Z,20.61
2019-06-07T17:50:01.718Z,20.42
2019-06-07T17:52:29.213Z,20.03
2019-06-07T17:54:56.519Z,19.68
2019-06-07T17:57:24.194Z,19.61
2019-06-07T17:59:52.611Z,18.82
2019-06-07T18:02:23.077Z,18.82
2019-06-07T18:04:54.259Z,18.62
2019-06-07T18:07:23.703Z,18.57
2019-06-07T18:09:53.671Z,18.24
2019-06-07T18:12:21.139Z,18.33
2019-06-07T18:14:48.561Z,18.24
2019-06-07T18:17:16.405Z,18.18
2019-06-07T18:19:45.276Z,18.04
2019-06-07T18:22:12.808Z,17.77
2019-06-07T18:24:40.084Z,17.56
2019-06-07T18:27:07.494Z,17.53
2019-06-07T18:29:34.846Z,17.62
2019-06-07T18:32:04.893Z,17.59
2019-06-07T18:34:34.715Z,17.57
2019-06-07T18:37:05.110Z,17.30
2019-06-07T18:39:32.443Z,17.46
2019-06-07T18:41:59.914Z,17.36
2019-06-07T18:44:27.167Z,17.05
2019-06-07T18:46:58.517Z,17.07
2019-06-07T18:49:26.016Z,17.07
2019-06-07T18:52:11.732Z,16.91
2019-06-07T18:54:41.178Z,16.91
2019-06-07T18:57:12.254Z,16.74
2019-06-07T18:59:38.722Z,16.49
2019-06-07T19:02:06.634Z,16.40
2019-06-07T19:04:33.826Z,16.25
2019-06-07T19:07:01.577Z,16.13
2019-06-07T19:09:31.916Z,15.98
2019-06-07T19:11:59.391Z,16.06
2019-06-07T19:14:36.658Z,15.88
2019-06-07T19:16:57.539Z,15.77
2019-06-07T19:19:25.042Z,15.46
2019-06-07T19:21:52.427Z,15.41
2019-06-07T19:24:22.408Z,15.42
2019-06-07T19:26:52.548Z,15.44
2019-06-07T19:29:20.377Z,15.38
2019-06-07T19:31:47.894Z,15.29
2019-06-07T19:34:15.184Z,15.32
2019-06-07T19:36:49.676Z,15.25
2019-06-07T19:39:16.962Z,15.08
2019-06-07T19:41:44.214Z,15.01
2019-06-07T19:44:11.931Z,14.97
2019-06-07T19:46:39.360Z,14.93
2019-06-07T19:49:06.869Z,14.95
2019-06-07T19:51:34.050Z,14.90
2019-06-07T19:54:01.888Z,14.93
2019-06-07T19:56:29.341Z,14.85
2019-06-07T19:58:57.629Z,14.90
2019-06-07T20:01:25.561Z,14.92
2019-06-07T20:03:53.793Z,14.97
2019-06-07T20:06:22.028Z,14.98
2019-06-07T20:08:49.581Z,14.89
2019-06-07T20:11:16.862Z,14.89
2019-06-07T20:13:45.453Z,14.75
2019-06-07T20:16:13.616Z,14.80
2019-06-07T20:18:40.792Z,14.77
2019-06-07T20:21:09.216Z,14.78
2019-06-07T20:23:36.605Z,14.75
2019-06-07T20:26:04.769Z,14.69
2019-06-07T20:28:32.386Z,14.66
2019-06-07T20:30:59.823Z,14.57
2019-06-07T20:33:27.187Z,14.45
2019-06-07T20:35:54.512Z,14.48
2019-06-07T20:38:21.727Z,14.42
2019-06-07T20:40:49.037Z,14.33
2019-06-07T20:43:16.338Z,14.37
2019-06-07T20:45:43.996Z,14.35
2019-06-07T20:48:11.796Z,14.34
2019-06-07T20:50:39.301Z,14.25
2019-06-07T20:53:07.176Z,14.27
2019-06-07T20:55:35.503Z,14.30
2019-06-07T20:58:03.782Z,14.27
2019-06-07T21:00:32.416Z,14.23
2019-06-07T21:03:05.169Z,14.13
2019-06-07T21:05:32.825Z,14.18
2019-06-07T21:08:01.406Z,14.19
2019-06-07T21:10:29.175Z,14.20
2019-06-07T21:12:56.438Z,14.25
2019-06-07T21:15:23.832Z,14.30
2019-06-07T21:17:51.007Z,14.26
2019-06-07T21:20:18.387Z,14.16
2019-06-07T21:22:45.562Z,14.17
2019-06-07T21:25:13.224Z,14.24
2019-06-07T21:27:40.602Z,14.22
2019-06-07T21:30:09.520Z,14.18
2019-06-07T21:32:37.177Z,14.11
2019-06-07T21:35:06.013Z,14.15
2019-06-07T21:37:33.708Z,14.14
2019-06-07T21:40:01.929Z,14.11
2019-06-07T21:42:29.746Z,14.14
2019-06-07T21:44:57.244Z,14.13
2019-06-07T21:47:24.391Z,14.14
2019-06-07T21:49:51.663Z,13.99
2019-06-07T21:52:25.667Z,13.99
2019-06-07T21:54:52.961Z,13.98
2019-06-07T21:57:20.217Z,13.94
2019-06-07T21:59:47.668Z,14.04
2019-06-07T22:02:15.169Z,14.05
2019-06-07T22:04:42.754Z,14.11
2019-06-07T22:07:11.484Z,14.04
2019-06-07T22:09:38.846Z,14.09
2019-06-07T22:12:06.217Z,14.03
2019-06-07T22:14:33.484Z,14.03
2019-06-07T22:17:00.785Z,14.05
2019-06-07T22:19:28.280Z,14.09
2019-06-07T22:22:02.501Z,14.02
2019-06-07T22:24:24.650Z,14.05
2019-06-07T22:26:51.832Z,14.05
2019-06-07T22:29:19.423Z,14.00
2019-06-07T22:31:46.693Z,13.99
2019-06-07T22:34:15.101Z,13.94
2019-06-07T22:36:42.640Z,13.87
2019-06-07T22:39:10.000Z,13.87
2019-06-07T22:41:37.671Z,13.87
2019-06-07T22:44:05.147Z,13.92
2019-06-07T22:46:37.359Z,13.86
2019-06-07T22:49:01.835Z,13.81
2019-06-07T22:51:29.137Z,13.80
2019-06-07T22:53:56.934Z,13.75
2019-06-07T22:56:45.896Z,13.73
2019-06-07T22:59:16.757Z,13.64
2019-06-07T23:01:42.558Z,13.63
2019-06-07T23:04:10.457Z,13.59
2019-06-07T23:06:37.819Z,13.59
2019-06-07T23:09:05.925Z,13.59
2019-06-07T23:11:33.972Z,13.66
2019-06-07T23:14:01.127Z,13.63
2019-06-07T23:16:28.311Z,13.56
2019-06-07T23:18:55.641Z,13.51
2019-06-07T23:21:22.908Z,13.57
2019-06-07T23:23:55.508Z,13.55
2019-06-07T23:26:22.709Z,13.64
2019-06-07T23:28:51.313Z,13.56
2019-06-07T23:31:18.657Z,13.56
2019-06-07T23:33:46.701Z,13.57
2019-06-07T23:36:15.063Z,13.55
2019-06-07T23:38:42.640Z,13.51
2019-06-07T23:41:11.312Z,13.48
2019-06-07T23:43:38.770Z,13.44
2019-06-07T23:46:06.058Z,13.45
2019-06-07T23:48:33.442Z,13.43
2019-06-07T23:51:00.665Z,13.33
2019-06-07T23:53:27.895Z,13.31
2019-06-07T23:55:55.067Z,13.34
2019-06-07T23:58:22.339Z,13.28
